sensor_id;sensor_type;location;lat;lon;timestamp;temperature;humidity
48589;DHT22;34369;51.174;6.738;2022-12-04T00:02:19;2.60;79.80
48589;DHT22;34369;51.174;6.738;2022-12-04T00:04:53;2.60;79.30
48589;DHT22;34369;51.174;6.738;2022-12-04T00:07:26;2.50;79.50
48589;DHT22;34369;51.174;6.738;2022-12-04T00:10:00;2.60;78.90
48589;DHT22;34369;51.174;6.738;2022-12-04T00:12:34;2.60;79.60
48589;DHT22;34369;51.174;6.738;2022-12-04T00:15:08;2.60;79.50
48589;DHT22;34369;51.174;6.738;2022-12-04T00:17:41;2.60;79.10
48589;DHT22;34369;51.174;6.738;2022-12-04T00:20:15;2.60;79.20
48589;DHT22;34369;51.174;6.738;2022-12-04T00:22:47;2.60;79.40
48589;DHT22;34369;51.174;6.738;2022-12-04T00:25:23;2.60;79.30
48589;DHT22;34369;51.174;6.738;2022-12-04T00:27:55;2.60;79.50
48589;DHT22;34369;51.174;6.738;2022-12-04T00:30:29;2.50;79.40
48589;DHT22;34369;51.174;6.738;2022-12-04T00:33:03;2.60;79.40
48589;DHT22;34369;51.174;6.738;2022-12-04T00:35:39;2.60;79.50
48589;DHT22;34369;51.174;6.738;2022-12-04T00:38:12;2.60;79.00
48589;DHT22;34369;51.174;6.738;2022-12-04T00:40:48;2.50;79.30
48589;DHT22;34369;51.174;6.738;2022-12-04T00:43:21;2.60;79.00
48589;DHT22;34369;51.174;6.738;2022-12-04T00:45:55;2.70;79.20
48589;DHT22;34369;51.174;6.738;2022-12-04T00:48:29;2.60;79.50
48589;DHT22;34369;51.174;6.738;2022-12-04T00:51:03;2.60;79.00
48589;DHT22;34369;51.174;6.738;2022-12-04T00:53:39;2.60;79.30
48589;DHT22;34369;51.174;6.738;2022-12-04T00:56:15;2.60;79.40
48589;DHT22;34369;51.174;6.738;2022-12-04T00:58:51;2.70;79.50
48589;DHT22;34369;51.174;6.738;2022-12-04T01:01:25;2.60;79.40
48589;DHT22;34369;51.174;6.738;2022-12-04T01:03:58;2.50;79.40
48589;DHT22;34369;51.174;6.738;2022-12-04T01:06:33;2.50;79.40
48589;DHT22;34369;51.174;6.738;2022-12-04T01:09:06;2.50;80.00
48589;DHT22;34369;51.174;6.738;2022-12-04T01:11:39;2.50;79.20
48589;DHT22;34369;51.174;6.738;2022-12-04T01:14:12;2.60;79.30
48589;DHT22;34369;51.174;6.738;2022-12-04T01:16:48;2.90;80.10
48589;DHT22;34369;51.174;6.738;2022-12-04T01:19:22;2.50;79.90
48589;DHT22;34369;51.174;6.738;2022-12-04T01:21:56;2.50;79.50
48589;DHT22;34369;51.174;6.738;2022-12-04T01:24:28;2.60;79.80
48589;DHT22;34369;51.174;6.738;2022-12-04T01:27:01;2.60;79.90
48589;DHT22;34369;51.174;6.738;2022-12-04T01:29:35;2.60;79.80
48589;DHT22;34369;51.174;6.738;2022-12-04T01:32:07;2.60;79.50
48589;DHT22;34369;51.174;6.738;2022-12-04T01:34:39;2.60;79.90
48589;DHT22;34369;51.174;6.738;2022-12-04T01:37:14;2.50;79.80
48589;DHT22;34369;51.174;6.738;2022-12-04T01:39:47;2.60;83.10
48589;DHT22;34369;51.174;6.738;2022-12-04T01:42:20;2.60;79.40
48589;DHT22;34369;51.174;6.738;2022-12-04T01:45:30;2.60;79.60
48589;DHT22;34369;51.174;6.738;2022-12-04T01:48:14;2.60;79.30
48589;DHT22;34369;51.174;6.738;2022-12-04T01:50:54;2.50;79.10
48589;DHT22;34369;51.174;6.738;2022-12-04T01:53:33;2.60;79.60
48589;DHT22;34369;51.174;6.738;2022-12-04T01:56:10;2.70;79.60
48589;DHT22;34369;51.174;6.738;2022-12-04T01:58:46;2.50;79.60
48589;DHT22;34369;51.174;6.738;2022-12-04T02:01:19;2.60;79.60
48589;DHT22;34369;51.174;6.738;2022-12-04T02:03:52;2.50;79.60
48589;DHT22;34369;51.174;6.738;2022-12-04T02:06:26;2.50;79.60
48589;DHT22;34369;51.174;6.738;2022-12-04T02:09:03;2.50;79.60
48589;DHT22;34369;51.174;6.738;2022-12-04T02:11:39;2.50;79.60
48589;DHT22;34369;51.174;6.738;2022-12-04T02:14:22;2.50;79.30
48589;DHT22;34369;51.174;6.738;2022-12-04T02:17:03;2.50;79.50
48589;DHT22;34369;51.174;6.738;2022-12-04T02:19:56;2.50;79.60
48589;DHT22;34369;51.174;6.738;2022-12-04T02:22:53;2.60;79.70
48589;DHT22;34369;51.174;6.738;2022-12-04T02:25:47;2.50;79.80
48589;DHT22;34369;51.174;6.738;2022-12-04T02:28:32;2.40;79.60
48589;DHT22;34369;51.174;6.738;2022-12-04T02:31:11;2.40;79.50
48589;DHT22;34369;51.174;6.738;2022-12-04T02:33:47;2.50;79.60
48589;DHT22;34369;51.174;6.738;2022-12-04T02:36:29;2.40;79.50
48589;DHT22;34369;51.174;6.738;2022-12-04T02:39:06;2.50;79.60
48589;DHT22;34369;51.174;6.738;2022-12-04T02:41:45;2.50;82.30
48589;DHT22;34369;51.174;6.738;2022-12-04T02:44:22;2.50;79.40
48589;DHT22;34369;51.174;6.738;2022-12-04T02:47:00;2.50;79.70
48589;DHT22;34369;51.174;6.738;2022-12-04T02:49:36;2.50;79.70
48589;DHT22;34369;51.174;6.738;2022-12-04T02:52:16;2.40;79.70
48589;DHT22;34369;51.174;6.738;2022-12-04T02:54:55;2.40;79.60
48589;DHT22;34369;51.174;6.738;2022-12-04T02:57:35;2.50;79.70
48589;DHT22;34369;51.174;6.738;2022-12-04T03:00:21;2.40;79.40
48589;DHT22;34369;51.174;6.738;2022-12-04T03:02:57;2.40;79.80
48589;DHT22;34369;51.174;6.738;2022-12-04T03:05:34;2.40;79.70
48589;DHT22;34369;51.174;6.738;2022-12-04T03:08:12;2.50;79.40
48589;DHT22;34369;51.174;6.738;2022-12-04T03:10:51;2.50;79.80
48589;DHT22;34369;51.174;6.738;2022-12-04T03:13:30;2.50;79.90
48589;DHT22;34369;51.174;6.738;2022-12-04T03:16:09;2.40;79.80
48589;DHT22;34369;51.174;6.738;2022-12-04T03:18:47;2.40;79.50
48589;DHT22;34369;51.174;6.738;2022-12-04T03:21:28;2.40;79.90
48589;DHT22;34369;51.174;6.738;2022-12-04T03:24:09;2.40;79.80
48589;DHT22;34369;51.174;6.738;2022-12-04T03:26:46;2.40;80.00
48589;DHT22;34369;51.174;6.738;2022-12-04T03:29:24;2.30;79.70
48589;DHT22;34369;51.174;6.738;2022-12-04T03:32:05;2.50;79.70
48589;DHT22;34369;51.174;6.738;2022-12-04T03:34:47;2.50;80.10
48589;DHT22;34369;51.174;6.738;2022-12-04T03:37:25;2.30;79.80
48589;DHT22;34369;51.174;6.738;2022-12-04T03:40:02;2.40;79.50
48589;DHT22;34369;51.174;6.738;2022-12-04T03:42:44;2.40;79.90
48589;DHT22;34369;51.174;6.738;2022-12-04T03:45:22;2.40;80.00
48589;DHT22;34369;51.174;6.738;2022-12-04T03:48:04;2.40;83.00
48589;DHT22;34369;51.174;6.738;2022-12-04T03:50:44;2.40;80.10
48589;DHT22;34369;51.174;6.738;2022-12-04T03:53:23;2.40;80.10
48589;DHT22;34369;51.174;6.738;2022-12-04T03:56:03;2.40;80.10
48589;DHT22;34369;51.174;6.738;2022-12-04T03:58:45;2.30;80.10
48589;DHT22;34369;51.174;6.738;2022-12-04T04:01:22;2.30;80.10
48589;DHT22;34369;51.174;6.738;2022-12-04T04:04:03;2.40;80.20
48589;DHT22;34369;51.174;6.738;2022-12-04T04:06:41;2.40;80.20
48589;DHT22;34369;51.174;6.738;2022-12-04T04:09:23;2.40;80.10
48589;DHT22;34369;51.174;6.738;2022-12-04T04:12:01;2.30;79.90
48589;DHT22;34369;51.174;6.738;2022-12-04T04:14:40;2.30;79.90
48589;DHT22;34369;51.174;6.738;2022-12-04T04:17:36;2.40;79.90
48589;DHT22;34369;51.174;6.738;2022-12-04T04:20:36;2.30;79.90
48589;DHT22;34369;51.174;6.738;2022-12-04T04:23:31;2.40;79.80
48589;DHT22;34369;51.174;6.738;2022-12-04T04:26:25;2.30;79.90
48589;DHT22;34369;51.174;6.738;2022-12-04T04:28:58;2.20;79.90
48589;DHT22;34369;51.174;6.738;2022-12-04T04:31:37;2.30;80.10
48589;DHT22;34369;51.174;6.738;2022-12-04T04:34:17;2.30;80.00
48589;DHT22;34369;51.174;6.738;2022-12-04T04:36:59;2.20;80.00
48589;DHT22;34369;51.174;6.738;2022-12-04T04:39:41;2.20;80.10
48589;DHT22;34369;51.174;6.738;2022-12-04T04:42:23;2.20;80.10
48589;DHT22;34369;51.174;6.738;2022-12-04T04:45:04;2.10;80.00
48589;DHT22;34369;51.174;6.738;2022-12-04T04:47:40;2.20;81.90
48589;DHT22;34369;51.174;6.738;2022-12-04T04:50:16;1.90;82.90
48589;DHT22;34369;51.174;6.738;2022-12-04T04:52:54;2.10;80.20
48589;DHT22;34369;51.174;6.738;2022-12-04T04:55:31;2.10;80.30
48589;DHT22;34369;51.174;6.738;2022-12-04T04:58:06;2.10;80.00
48589;DHT22;34369;51.174;6.738;2022-12-04T05:00:39;2.10;80.40
48589;DHT22;34369;51.174;6.738;2022-12-04T05:03:12;2.30;80.60
48589;DHT22;34369;51.174;6.738;2022-12-04T05:05:44;2.20;80.70
48589;DHT22;34369;51.174;6.738;2022-12-04T05:08:18;2.20;80.50
48589;DHT22;34369;51.174;6.738;2022-12-04T05:10:52;2.10;80.50
48589;DHT22;34369;51.174;6.738;2022-12-04T05:13:24;2.10;80.50
48589;DHT22;34369;51.174;6.738;2022-12-04T05:15:56;2.10;80.50
48589;DHT22;34369;51.174;6.738;2022-12-04T05:18:31;2.10;80.50
48589;DHT22;34369;51.174;6.738;2022-12-04T05:21:04;2.10;80.50
48589;DHT22;34369;51.174;6.738;2022-12-04T05:23:37;2.00;80.50
48589;DHT22;34369;51.174;6.738;2022-12-04T05:26:09;2.00;80.10
48589;DHT22;34369;51.174;6.738;2022-12-04T05:28:45;2.10;80.50
48589;DHT22;34369;51.174;6.738;2022-12-04T05:31:17;2.00;80.30
48589;DHT22;34369;51.174;6.738;2022-12-04T05:33:49;2.00;80.30
48589;DHT22;34369;51.174;6.738;2022-12-04T05:36:22;1.90;80.10
48589;DHT22;34369;51.174;6.738;2022-12-04T05:38:56;1.90;80.10
48589;DHT22;34369;51.174;6.738;2022-12-04T05:41:28;1.80;80.00
48589;DHT22;34369;51.174;6.738;2022-12-04T05:44:00;1.80;80.00
48589;DHT22;34369;51.174;6.738;2022-12-04T05:46:32;1.80;80.00
48589;DHT22;34369;51.174;6.738;2022-12-04T05:49:05;1.70;80.20
48589;DHT22;34369;51.174;6.738;2022-12-04T05:51:37;1.60;84.60
48589;DHT22;34369;51.174;6.738;2022-12-04T05:54:10;1.80;84.30
48589;DHT22;34369;51.174;6.738;2022-12-04T05:56:43;1.70;84.60
48589;DHT22;34369;51.174;6.738;2022-12-04T05:59:15;1.10;83.80
48589;DHT22;34369;51.174;6.738;2022-12-04T06:01:47;1.50;80.00
48589;DHT22;34369;51.174;6.738;2022-12-04T06:04:20;1.50;80.00
48589;DHT22;34369;51.174;6.738;2022-12-04T06:06:53;1.70;80.10
48589;DHT22;34369;51.174;6.738;2022-12-04T06:09:27;1.50;80.10
48589;DHT22;34369;51.174;6.738;2022-12-04T06:12:03;1.30;80.00
48589;DHT22;34369;51.174;6.738;2022-12-04T06:14:37;1.10;85.80
48589;DHT22;34369;51.174;6.738;2022-12-04T06:17:09;1.30;80.50
48589;DHT22;34369;51.174;6.738;2022-12-04T06:19:41;1.20;80.80
48589;DHT22;34369;51.174;6.738;2022-12-04T06:22:13;1.60;85.40
48589;DHT22;34369;51.174;6.738;2022-12-04T06:24:48;1.40;84.70
48589;DHT22;34369;51.174;6.738;2022-12-04T06:27:20;1.20;80.30
48589;DHT22;34369;51.174;6.738;2022-12-04T06:29:52;1.20;79.80
48589;DHT22;34369;51.174;6.738;2022-12-04T06:32:25;1.30;80.20
48589;DHT22;34369;51.174;6.738;2022-12-04T06:34:57;1.20;80.20
48589;DHT22;34369;51.174;6.738;2022-12-04T06:37:29;1.10;84.20
48589;DHT22;34369;51.174;6.738;2022-12-04T06:40:03;1.30;80.00
48589;DHT22;34369;51.174;6.738;2022-12-04T06:42:38;1.30;80.40
48589;DHT22;34369;51.174;6.738;2022-12-04T06:45:10;1.20;80.40
48589;DHT22;34369;51.174;6.738;2022-12-04T06:47:43;-0.50;83.70
48589;DHT22;34369;51.174;6.738;2022-12-04T06:50:15;1.30;80.40
48589;DHT22;34369;51.174;6.738;2022-12-04T06:52:48;1.20;80.80
48589;DHT22;34369;51.174;6.738;2022-12-04T06:55:22;1.20;81.20
48589;DHT22;34369;51.174;6.738;2022-12-04T06:57:57;1.30;81.50
48589;DHT22;34369;51.174;6.738;2022-12-04T07:00:30;1.40;81.30
48589;DHT22;34369;51.174;6.738;2022-12-04T07:03:02;1.30;81.00
48589;DHT22;34369;51.174;6.738;2022-12-04T07:05:35;1.20;81.00
48589;DHT22;34369;51.174;6.738;2022-12-04T07:08:07;1.30;80.80
48589;DHT22;34369;51.174;6.738;2022-12-04T07:10:41;1.10;85.90
48589;DHT22;34369;51.174;6.738;2022-12-04T07:13:14;1.30;81.20
48589;DHT22;34369;51.174;6.738;2022-12-04T07:15:49;1.40;81.20
48589;DHT22;34369;51.174;6.738;2022-12-04T07:18:21;1.40;85.10
48589;DHT22;34369;51.174;6.738;2022-12-04T07:20:55;1.50;81.20
48589;DHT22;34369;51.174;6.738;2022-12-04T07:23:31;1.40;81.10
48589;DHT22;34369;51.174;6.738;2022-12-04T07:26:10;1.60;81.20
48589;DHT22;34369;51.174;6.738;2022-12-04T07:28:45;1.50;81.20
48589;DHT22;34369;51.174;6.738;2022-12-04T07:31:20;1.50;81.10
48589;DHT22;34369;51.174;6.738;2022-12-04T07:33:56;1.50;84.30
48589;DHT22;34369;51.174;6.738;2022-12-04T07:36:28;1.60;81.10
48589;DHT22;34369;51.174;6.738;2022-12-04T07:39:01;1.60;81.00
48589;DHT22;34369;51.174;6.738;2022-12-04T07:41:35;1.60;81.00
48589;DHT22;34369;51.174;6.738;2022-12-04T07:44:07;1.70;81.00
48589;DHT22;34369;51.174;6.738;2022-12-04T07:46:40;1.60;80.80
48589;DHT22;34369;51.174;6.738;2022-12-04T07:49:12;1.50;80.70
48589;DHT22;34369;51.174;6.738;2022-12-04T07:51:45;0.10;82.70
48589;DHT22;34369;51.174;6.738;2022-12-04T07:54:17;1.70;80.90
48589;DHT22;34369;51.174;6.738;2022-12-04T07:56:51;1.70;80.80
48589;DHT22;34369;51.174;6.738;2022-12-04T07:59:23;1.70;80.40
48589;DHT22;34369;51.174;6.738;2022-12-04T08:01:57;1.90;80.60
48589;DHT22;34369;51.174;6.738;2022-12-04T08:04:31;1.80;80.40
48589;DHT22;34369;51.174;6.738;2022-12-04T08:07:03;1.80;80.40
48589;DHT22;34369;51.174;6.738;2022-12-04T08:09:36;1.70;80.40
48589;DHT22;34369;51.174;6.738;2022-12-04T08:12:11;2.50;85.10
48589;DHT22;34369;51.174;6.738;2022-12-04T08:14:43;1.80;80.10
48589;DHT22;34369;51.174;6.738;2022-12-04T08:17:17;1.90;80.10
48589;DHT22;34369;51.174;6.738;2022-12-04T08:19:50;1.90;79.40
48589;DHT22;34369;51.174;6.738;2022-12-04T08:22:23;1.60;79.30
48589;DHT22;34369;51.174;6.738;2022-12-04T08:24:55;1.90;79.50
48589;DHT22;34369;51.174;6.738;2022-12-04T08:27:29;2.00;79.20
48589;DHT22;34369;51.174;6.738;2022-12-04T08:32:36;1.90;78.40
48589;DHT22;34369;51.174;6.738;2022-12-04T08:35:09;1.90;78.20
48589;DHT22;34369;51.174;6.738;2022-12-04T08:37:41;2.00;78.40
48589;DHT22;34369;51.174;6.738;2022-12-04T08:40:14;2.00;78.30
48589;DHT22;34369;51.174;6.738;2022-12-04T08:42:48;2.20;78.50
48589;DHT22;34369;51.174;6.738;2022-12-04T08:45:23;1.80;78.30
48589;DHT22;34369;51.174;6.738;2022-12-04T08:50:32;1.90;77.80
48589;DHT22;34369;51.174;6.738;2022-12-04T08:53:04;2.00;78.30
48589;DHT22;34369;51.174;6.738;2022-12-04T08:55:37;2.10;78.00
48589;DHT22;34369;51.174;6.738;2022-12-04T08:58:12;2.00;77.60
48589;DHT22;34369;51.174;6.738;2022-12-04T09:00:45;2.00;77.50
48589;DHT22;34369;51.174;6.738;2022-12-04T09:03:19;2.00;77.50
48589;DHT22;34369;51.174;6.738;2022-12-04T09:05:57;2.00;77.10
48589;DHT22;34369;51.174;6.738;2022-12-04T09:08:31;2.00;77.20
48589;DHT22;34369;51.174;6.738;2022-12-04T09:11:05;2.00;77.50
48589;DHT22;34369;51.174;6.738;2022-12-04T09:13:45;2.10;81.60
48589;DHT22;34369;51.174;6.738;2022-12-04T09:16:20;3.90;81.80
48589;DHT22;34369;51.174;6.738;2022-12-04T09:18:55;2.10;77.10
48589;DHT22;34369;51.174;6.738;2022-12-04T09:21:27;2.00;77.30
48589;DHT22;34369;51.174;6.738;2022-12-04T09:24:00;2.10;77.10
48589;DHT22;34369;51.174;6.738;2022-12-04T09:26:33;2.10;76.90
48589;DHT22;34369;51.174;6.738;2022-12-04T09:29:09;2.40;77.10
48589;DHT22;34369;51.174;6.738;2022-12-04T09:31:42;2.40;80.70
48589;DHT22;34369;51.174;6.738;2022-12-04T09:34:15;2.10;76.80
48589;DHT22;34369;51.174;6.738;2022-12-04T09:36:47;3.90;78.10
48589;DHT22;34369;51.174;6.738;2022-12-04T09:39:19;2.20;77.10
48589;DHT22;34369;51.174;6.738;2022-12-04T09:44:58;2.20;76.90
48589;DHT22;34369;51.174;6.738;2022-12-04T09:47:38;2.10;76.00
48589;DHT22;34369;51.174;6.738;2022-12-04T09:50:16;2.20;76.40
48589;DHT22;34369;51.174;6.738;2022-12-04T09:52:55;2.40;76.40
48589;DHT22;34369;51.174;6.738;2022-12-04T09:55:35;2.20;76.50
48589;DHT22;34369;51.174;6.738;2022-12-04T09:58:13;2.20;76.50
48589;DHT22;34369;51.174;6.738;2022-12-04T10:00:51;2.20;76.20
48589;DHT22;34369;51.174;6.738;2022-12-04T10:03:26;2.30;75.90
48589;DHT22;34369;51.174;6.738;2022-12-04T10:06:04;2.30;75.90
48589;DHT22;34369;51.174;6.738;2022-12-04T10:08:44;2.20;76.20
48589;DHT22;34369;51.174;6.738;2022-12-04T10:11:22;2.20;76.00
48589;DHT22;34369;51.174;6.738;2022-12-04T10:14:09;2.20;75.70
48589;DHT22;34369;51.174;6.738;2022-12-04T10:17:06;2.30;76.70
48589;DHT22;34369;51.174;6.738;2022-12-04T10:19:51;2.20;76.10
48589;DHT22;34369;51.174;6.738;2022-12-04T10:22:32;2.20;76.10
48589;DHT22;34369;51.174;6.738;2022-12-04T10:25:15;2.30;76.00
48589;DHT22;34369;51.174;6.738;2022-12-04T10:27:52;2.30;76.00
48589;DHT22;34369;51.174;6.738;2022-12-04T10:30:33;2.30;76.30
48589;DHT22;34369;51.174;6.738;2022-12-04T10:33:26;2.30;76.10
48589;DHT22;34369;51.174;6.738;2022-12-04T10:36:10;2.40;75.70
48589;DHT22;34369;51.174;6.738;2022-12-04T10:38:47;2.40;76.00
48589;DHT22;34369;51.174;6.738;2022-12-04T10:41:27;2.40;75.90
48589;DHT22;34369;51.174;6.738;2022-12-04T10:44:02;2.30;75.80
48589;DHT22;34369;51.174;6.738;2022-12-04T10:46:35;2.40;76.00
48589;DHT22;34369;51.174;6.738;2022-12-04T10:49:17;2.40;76.00
48589;DHT22;34369;51.174;6.738;2022-12-04T10:51:51;2.40;75.50
48589;DHT22;34369;51.174;6.738;2022-12-04T10:54:29;2.40;75.40
48589;DHT22;34369;51.174;6.738;2022-12-04T10:57:07;2.50;75.50
48589;DHT22;34369;51.174;6.738;2022-12-04T10:59:47;2.60;75.50
48589;DHT22;34369;51.174;6.738;2022-12-04T11:02:23;2.50;75.50
48589;DHT22;34369;51.174;6.738;2022-12-04T11:05:00;2.50;75.50
48589;DHT22;34369;51.174;6.738;2022-12-04T11:07:35;2.50;75.70
48589;DHT22;34369;51.174;6.738;2022-12-04T11:10:30;2.60;75.80
48589;DHT22;34369;51.174;6.738;2022-12-04T11:13:13;2.60;75.60
48589;DHT22;34369;51.174;6.738;2022-12-04T11:15:49;2.60;75.40
48589;DHT22;34369;51.174;6.738;2022-12-04T11:18:24;2.60;75.50
48589;DHT22;34369;51.174;6.738;2022-12-04T11:21:03;2.60;75.60
48589;DHT22;34369;51.174;6.738;2022-12-04T11:23:42;2.40;79.40
48589;DHT22;34369;51.174;6.738;2022-12-04T11:26:29;2.60;75.60
48589;DHT22;34369;51.174;6.738;2022-12-04T11:29:05;2.60;75.70
48589;DHT22;34369;51.174;6.738;2022-12-04T11:31:45;2.80;75.60
48589;DHT22;34369;51.174;6.738;2022-12-04T11:34:21;2.80;75.60
48589;DHT22;34369;51.174;6.738;2022-12-04T11:36:57;2.70;76.00
48589;DHT22;34369;51.174;6.738;2022-12-04T11:39:32;2.80;76.00
48589;DHT22;34369;51.174;6.738;2022-12-04T11:42:14;2.80;76.00
48589;DHT22;34369;51.174;6.738;2022-12-04T11:44:51;2.90;76.00
48589;DHT22;34369;51.174;6.738;2022-12-04T11:47:27;2.80;75.70
48589;DHT22;34369;51.174;6.738;2022-12-04T11:50:11;3.00;75.10
48589;DHT22;34369;51.174;6.738;2022-12-04T11:52:55;2.90;75.20
48589;DHT22;34369;51.174;6.738;2022-12-04T11:55:42;3.00;75.00
48589;DHT22;34369;51.174;6.738;2022-12-04T11:58:44;2.90;75.10
48589;DHT22;34369;51.174;6.738;2022-12-04T12:01:32;3.10;75.50
48589;DHT22;34369;51.174;6.738;2022-12-04T12:04:41;2.90;75.00
48589;DHT22;34369;51.174;6.738;2022-12-04T12:07:33;3.00;75.10
48589;DHT22;34369;51.174;6.738;2022-12-04T12:10:18;3.00;74.60
48589;DHT22;34369;51.174;6.738;2022-12-04T12:13:02;3.10;74.80
48589;DHT22;34369;51.174;6.738;2022-12-04T12:15:44;3.00;75.00
48589;DHT22;34369;51.174;6.738;2022-12-04T12:18:37;3.10;75.30
48589;DHT22;34369;51.174;6.738;2022-12-04T12:21:18;3.00;74.90
48589;DHT22;34369;51.174;6.738;2022-12-04T12:24:08;3.20;75.20
48589;DHT22;34369;51.174;6.738;2022-12-04T12:26:57;3.00;75.00
48589;DHT22;34369;51.174;6.738;2022-12-04T12:29:51;3.00;74.90
48589;DHT22;34369;51.174;6.738;2022-12-04T12:32:44;3.00;74.70
48589;DHT22;34369;51.174;6.738;2022-12-04T12:35:29;3.10;74.60
48589;DHT22;34369;51.174;6.738;2022-12-04T12:38:09;3.10;74.60
48589;DHT22;34369;51.174;6.738;2022-12-04T12:40:47;3.00;74.60
48589;DHT22;34369;51.174;6.738;2022-12-04T12:43:27;3.00;74.20
48589;DHT22;34369;51.174;6.738;2022-12-04T12:46:04;3.20;74.30
48589;DHT22;34369;51.174;6.738;2022-12-04T12:48:45;3.10;74.40
48589;DHT22;34369;51.174;6.738;2022-12-04T12:51:32;3.10;74.60
48589;DHT22;34369;51.174;6.738;2022-12-04T12:54:13;3.10;74.40
48589;DHT22;34369;51.174;6.738;2022-12-04T12:56:51;3.00;74.30
48589;DHT22;34369;51.174;6.738;2022-12-04T12:59:29;3.10;74.30
48589;DHT22;34369;51.174;6.738;2022-12-04T13:02:10;3.10;74.80
48589;DHT22;34369;51.174;6.738;2022-12-04T13:04:56;3.10;74.80
48589;DHT22;34369;51.174;6.738;2022-12-04T13:07:40;3.10;74.80
48589;DHT22;34369;51.174;6.738;2022-12-04T13:10:19;3.10;74.70
48589;DHT22;34369;51.174;6.738;2022-12-04T13:12:57;3.10;75.00
48589;DHT22;34369;51.174;6.738;2022-12-04T13:15:43;3.20;75.10
48589;DHT22;34369;51.174;6.738;2022-12-04T13:18:20;3.10;75.00
48589;DHT22;34369;51.174;6.738;2022-12-04T13:20:56;3.10;75.20
48589;DHT22;34369;51.174;6.738;2022-12-04T13:23:46;3.20;74.90
48589;DHT22;34369;51.174;6.738;2022-12-04T13:26:36;3.30;74.80
48589;DHT22;34369;51.174;6.738;2022-12-04T13:29:29;3.10;74.80
48589;DHT22;34369;51.174;6.738;2022-12-04T13:32:36;3.20;74.60
48589;DHT22;34369;51.174;6.738;2022-12-04T13:35:31;3.10;74.80
48589;DHT22;34369;51.174;6.738;2022-12-04T13:38:21;3.10;74.80
48589;DHT22;34369;51.174;6.738;2022-12-04T13:41:00;3.10;74.80
48589;DHT22;34369;51.174;6.738;2022-12-04T13:43:36;3.20;75.20
48589;DHT22;34369;51.174;6.738;2022-12-04T13:46:26;3.10;75.30
48589;DHT22;34369;51.174;6.738;2022-12-04T13:49:19;3.10;75.20
48589;DHT22;34369;51.174;6.738;2022-12-04T13:52:00;3.20;75.30
48589;DHT22;34369;51.174;6.738;2022-12-04T13:54:34;3.10;75.30
48589;DHT22;34369;51.174;6.738;2022-12-04T13:57:17;3.20;75.40
48589;DHT22;34369;51.174;6.738;2022-12-04T14:00:03;3.10;75.20
48589;DHT22;34369;51.174;6.738;2022-12-04T14:02:47;3.20;75.10
48589;DHT22;34369;51.174;6.738;2022-12-04T14:05:28;3.20;75.40
48589;DHT22;34369;51.174;6.738;2022-12-04T14:08:04;3.10;75.30
48589;DHT22;34369;51.174;6.738;2022-12-04T14:10:38;3.10;75.20
48589;DHT22;34369;51.174;6.738;2022-12-04T14:13:17;3.20;75.30
48589;DHT22;34369;51.174;6.738;2022-12-04T14:16:04;3.20;75.20
48589;DHT22;34369;51.174;6.738;2022-12-04T14:18:40;3.10;75.40
48589;DHT22;34369;51.174;6.738;2022-12-04T14:21:19;3.10;75.60
48589;DHT22;34369;51.174;6.738;2022-12-04T14:23:53;3.10;75.50
48589;DHT22;34369;51.174;6.738;2022-12-04T14:26:27;3.20;75.60
48589;DHT22;34369;51.174;6.738;2022-12-04T14:29:05;3.20;75.50
48589;DHT22;34369;51.174;6.738;2022-12-04T14:31:40;3.20;75.60
48589;DHT22;34369;51.174;6.738;2022-12-04T14:34:20;3.20;75.30
48589;DHT22;34369;51.174;6.738;2022-12-04T14:36:56;3.20;75.60
48589;DHT22;34369;51.174;6.738;2022-12-04T14:39:33;3.10;75.60
48589;DHT22;34369;51.174;6.738;2022-12-04T14:42:13;3.10;75.80
48589;DHT22;34369;51.174;6.738;2022-12-04T14:44:53;3.20;75.50
48589;DHT22;34369;51.174;6.738;2022-12-04T14:47:39;3.20;75.80
48589;DHT22;34369;51.174;6.738;2022-12-04T14:50:27;3.20;75.60
48589;DHT22;34369;51.174;6.738;2022-12-04T14:53:15;3.20;75.80
48589;DHT22;34369;51.174;6.738;2022-12-04T14:56:02;3.10;75.70
48589;DHT22;34369;51.174;6.738;2022-12-04T14:58:41;3.10;75.70
48589;DHT22;34369;51.174;6.738;2022-12-04T15:01:20;3.10;76.00
48589;DHT22;34369;51.174;6.738;2022-12-04T15:03:57;3.20;76.00
48589;DHT22;34369;51.174;6.738;2022-12-04T15:06:32;3.10;76.10
48589;DHT22;34369;51.174;6.738;2022-12-04T15:09:25;3.10;76.30
48589;DHT22;34369;51.174;6.738;2022-12-04T15:12:18;3.10;75.80
48589;DHT22;34369;51.174;6.738;2022-12-04T15:15:14;3.10;76.20
48589;DHT22;34369;51.174;6.738;2022-12-04T15:17:59;3.20;76.20
48589;DHT22;34369;51.174;6.738;2022-12-04T15:20:37;3.10;76.30
48589;DHT22;34369;51.174;6.738;2022-12-04T15:23:20;3.10;76.40
48589;DHT22;34369;51.174;6.738;2022-12-04T15:25:56;3.10;76.50
48589;DHT22;34369;51.174;6.738;2022-12-04T15:28:33;3.20;76.90
48589;DHT22;34369;51.174;6.738;2022-12-04T15:31:12;3.20;76.90
48589;DHT22;34369;51.174;6.738;2022-12-04T15:33:49;3.20;77.00
48589;DHT22;34369;51.174;6.738;2022-12-04T15:36:35;3.20;77.10
48589;DHT22;34369;51.174;6.738;2022-12-04T15:39:16;3.20;77.30
48589;DHT22;34369;51.174;6.738;2022-12-04T15:41:51;3.20;76.90
48589;DHT22;34369;51.174;6.738;2022-12-04T15:44:36;3.10;77.40
48589;DHT22;34369;51.174;6.738;2022-12-04T15:47:18;3.30;77.50
48589;DHT22;34369;51.174;6.738;2022-12-04T15:49:52;3.20;77.30
48589;DHT22;34369;51.174;6.738;2022-12-04T15:52:24;3.20;77.80
48589;DHT22;34369;51.174;6.738;2022-12-04T15:54:59;3.30;78.10
48589;DHT22;34369;51.174;6.738;2022-12-04T15:57:39;3.20;78.00
48589;DHT22;34369;51.174;6.738;2022-12-04T16:00:22;3.30;77.90
48589;DHT22;34369;51.174;6.738;2022-12-04T16:02:57;3.20;78.30
48589;DHT22;34369;51.174;6.738;2022-12-04T16:05:33;3.30;78.40
48589;DHT22;34369;51.174;6.738;2022-12-04T16:08:23;3.30;78.60
48589;DHT22;34369;51.174;6.738;2022-12-04T16:10:59;3.30;78.80
48589;DHT22;34369;51.174;6.738;2022-12-04T16:13:37;3.30;78.70
48589;DHT22;34369;51.174;6.738;2022-12-04T16:16:14;3.30;78.40
48589;DHT22;34369;51.174;6.738;2022-12-04T16:18:48;3.40;78.60
48589;DHT22;34369;51.174;6.738;2022-12-04T16:21:22;3.30;78.70
48589;DHT22;34369;51.174;6.738;2022-12-04T16:24:03;3.40;78.90
48589;DHT22;34369;51.174;6.738;2022-12-04T16:26:36;3.30;78.90
48589;DHT22;34369;51.174;6.738;2022-12-04T16:29:09;3.40;79.00
48589;DHT22;34369;51.174;6.738;2022-12-04T16:31:42;3.30;78.60
48589;DHT22;34369;51.174;6.738;2022-12-04T16:34:15;3.30;79.00
48589;DHT22;34369;51.174;6.738;2022-12-04T16:36:47;3.40;78.90
48589;DHT22;34369;51.174;6.738;2022-12-04T16:39:19;3.30;79.10
48589;DHT22;34369;51.174;6.738;2022-12-04T16:41:56;3.30;79.20
48589;DHT22;34369;51.174;6.738;2022-12-04T16:44:29;3.40;79.20
48589;DHT22;34369;51.174;6.738;2022-12-04T16:47:02;3.30;79.20
48589;DHT22;34369;51.174;6.738;2022-12-04T16:49:37;3.30;79.20
48589;DHT22;34369;51.174;6.738;2022-12-04T16:52:09;3.40;78.90
48589;DHT22;34369;51.174;6.738;2022-12-04T16:54:42;3.30;79.20
48589;DHT22;34369;51.174;6.738;2022-12-04T16:57:14;3.40;79.30
48589;DHT22;34369;51.174;6.738;2022-12-04T16:59:47;3.40;79.40
48589;DHT22;34369;51.174;6.738;2022-12-04T17:02:27;3.30;79.50